CheckWX is a tool to help pilots better visualize weather data.  It is not intended as a substitute for an official pre-flight weather briefing.

18:22:35 UTC

KMOT TAF
Minot International Airport
Minot, North Dakota, USA
KMOT 201731Z 2018/2118 12005KT P6SM BKN006 BKN100 FM202100 26007KT 6SM SHRA BR VCTS SCT018CB OVC080 TEMPO 2021/2023 2SM +TSRA BR BKN018CB FM210200 31010KT P6SM VCSH SCT014 OVC029 FM211500 28011KT 5SM SHRA BR BKN007

Sep-20@
18:00 UTC

Sep-20 @ 18:00 UTC

Sep-20@
21:00 UTC

Sep-20 @ 21:00 UTC

KMOT 201731Z 2018/2118 12005KT P6SM BKN006 BKN100
Wind
  • 120° at 5 KTS
Cloud Levels
  • Broken at 600' AGL
  • Broken at 10,000' AGL

Sep-20@
21:00 UTC

Sep-20 @ 21:00 UTC

Sep-20@
23:00 UTC

Sep-20 @ 23:00 UTC

TEMPO 2021/2023 2SM +TSRA BR BKN018CB

Temporary

Temporary Changes expected for less than half the time period

Conditions
Heavy Thunderstorm, Heavy Rain, Mist
Cloud Levels
  • Broken at 1,800' AGL

Sep-20@
21:00 UTC

Sep-20 @ 21:00 UTC

Sep-21@
02:00 UTC

Sep-21 @ 02:00 UTC

FM202100 26007KT 6SM SHRA BR VCTS SCT018CB OVC080

From

From Standard forecast or significant change

Wind
  • 260° at 7 KTS
Conditions
Rain, Mist, Area Thunderstorm
Cloud Levels
  • Scattered at 1,800' AGL
  • Overcast at 8,000' AGL

Sep-21@
02:00 UTC

Sep-21 @ 02:00 UTC

Sep-21@
15:00 UTC

Sep-21 @ 15:00 UTC

FM210200 31010KT P6SM VCSH SCT014 OVC029

From

From Standard forecast or significant change

Wind
  • 310° at 10 KTS
Cloud Levels
  • Scattered at 1,400' AGL
  • Overcast at 2,900' AGL

Sep-21@
15:00 UTC

Sep-21 @ 15:00 UTC

Sep-21@
18:00 UTC

Sep-21 @ 18:00 UTC

FM211500 28011KT 5SM SHRA BR BKN007

From

From Standard forecast or significant change

Wind
  • 280° at 11 KTS
Conditions
Rain, Mist
Cloud Levels
  • Broken at 700' AGL